createdAt,value
2022-10-08T00:01:13.041Z,17.50
2022-10-08T00:03:43.723Z,18.03
2022-10-08T00:06:25.522Z,17.52
2022-10-08T00:08:54.815Z,18.49
2022-10-08T00:11:30.291Z,17.51
2022-10-08T00:13:58.065Z,17.83
2022-10-08T00:16:26.771Z,17.41
2022-10-08T00:18:56.365Z,16.99
2022-10-08T00:21:35.079Z,17.45
2022-10-08T00:24:03.716Z,16.56
2022-10-08T00:26:32.443Z,16.75
2022-10-08T00:29:02.008Z,16.55
2022-10-08T00:31:34.167Z,16.60
2022-10-08T00:34:04.488Z,16.51
2022-10-08T00:36:32.877Z,17.21
2022-10-08T00:39:07.506Z,17.62
2022-10-08T00:41:38.341Z,18.44
2022-10-08T00:44:42.433Z,17.19
2022-10-08T00:47:20.792Z,17.31
2022-10-08T00:49:49.710Z,17.84
2022-10-08T00:52:17.495Z,18.21
2022-10-08T00:54:45.535Z,18.17
2022-10-08T00:57:12.601Z,17.86
2022-10-08T00:59:39.483Z,17.56
2022-10-08T01:02:17.756Z,16.92
2022-10-08T01:04:44.683Z,16.31
2022-10-08T01:07:23.826Z,16.43
2022-10-08T01:10:15.720Z,16.55
2022-10-08T01:13:00.022Z,16.60
2022-10-08T01:15:35.532Z,16.22
2022-10-08T01:18:17.749Z,16.41
2022-10-08T01:20:54.961Z,16.62
2022-10-08T01:23:27.092Z,16.81
2022-10-08T01:26:17.236Z,16.85
2022-10-08T01:28:57.620Z,17.29
2022-10-08T01:31:41.399Z,16.58
2022-10-08T01:34:24.277Z,16.50
2022-10-08T01:36:51.788Z,16.43
2022-10-08T01:39:20.531Z,15.87
2022-10-08T01:41:53.795Z,15.37
2022-10-08T01:44:26.858Z,16.28
2022-10-08T01:46:57.156Z,16.44
2022-10-08T01:49:26.437Z,16.37
2022-10-08T01:51:57.345Z,16.64
2022-10-08T01:54:25.717Z,16.81
2022-10-08T01:56:54.121Z,17.30
2022-10-08T01:59:26.571Z,16.89
2022-10-08T02:01:59.673Z,16.41
2022-10-08T02:04:37.108Z,16.26
2022-10-08T02:07:22.498Z,16.18
2022-10-08T02:09:54.082Z,16.66
2022-10-08T02:12:23.279Z,16.90
2022-10-08T02:14:54.898Z,17.12
2022-10-08T02:17:43.879Z,16.81
2022-10-08T02:20:33.995Z,16.54
2022-10-08T02:23:37.646Z,16.85
2022-10-08T02:26:07.220Z,16.29
2022-10-08T02:28:50.928Z,16.54
2022-10-08T02:31:36.025Z,16.30
2022-10-08T02:34:30.919Z,16.31
2022-10-08T02:37:22.053Z,16.53
2022-10-08T02:39:59.713Z,16.77
2022-10-08T02:42:27.884Z,16.62
2022-10-08T02:45:19.554Z,16.30
2022-10-08T02:47:50.225Z,16.40
2022-10-08T02:50:19.379Z,16.00
2022-10-08T02:52:47.747Z,15.90
2022-10-08T02:55:40.429Z,15.95
2022-10-08T02:58:10.159Z,16.51
2022-10-08T03:00:41.660Z,16.09
2022-10-08T03:03:16.811Z,16.35
2022-10-08T03:05:44.387Z,16.08
2022-10-08T03:08:13.221Z,15.97
2022-10-08T03:10:40.970Z,15.99
2022-10-08T03:13:08.112Z,16.08
2022-10-08T03:15:35.575Z,16.10
2022-10-08T03:18:06.849Z,16.02
2022-10-08T03:20:34.255Z,17.04
2022-10-08T03:23:02.226Z,16.20
2022-10-08T03:25:29.103Z,15.89
2022-10-08T03:27:55.998Z,16.06
2022-10-08T03:30:22.880Z,16.23
2022-10-08T03:32:49.982Z,16.77
2022-10-08T03:35:16.953Z,16.68
2022-10-08T03:37:43.796Z,16.78
2022-10-08T03:40:11.061Z,16.98
2022-10-08T03:42:38.233Z,17.23
2022-10-08T03:45:06.101Z,16.78
2022-10-08T03:47:32.972Z,16.58
2022-10-08T03:49:59.908Z,16.54
2022-10-08T03:52:26.913Z,17.02
2022-10-08T03:54:53.783Z,17.56
2022-10-08T03:57:20.632Z,16.71
2022-10-08T03:59:47.491Z,16.51
2022-10-08T04:02:14.701Z,16.53
2022-10-08T04:04:41.586Z,16.65
2022-10-08T04:07:08.440Z,17.21
2022-10-08T04:09:35.277Z,17.20
2022-10-08T04:12:02.105Z,17.39
2022-10-08T04:14:29.010Z,17.98
2022-10-08T04:16:55.839Z,17.93
2022-10-08T04:19:22.724Z,16.98
2022-10-08T04:21:49.562Z,15.77
2022-10-08T04:24:16.463Z,16.30
2022-10-08T04:26:43.282Z,16.22
2022-10-08T04:29:12.676Z,15.70
2022-10-08T04:31:40.466Z,15.75
2022-10-08T04:34:07.512Z,15.84
2022-10-08T04:36:34.373Z,16.31
2022-10-08T04:39:01.196Z,16.49
2022-10-08T04:41:28.125Z,16.71
2022-10-08T04:44:00.400Z,16.44
2022-10-08T04:46:27.568Z,16.87
2022-10-08T04:48:56.133Z,15.90
2022-10-08T04:51:25.327Z,15.45
2022-10-08T04:53:54.618Z,15.22
2022-10-08T04:56:27.269Z,14.22
2022-10-08T04:58:57.784Z,14.56
2022-10-08T05:01:25.761Z,15.02
2022-10-08T05:03:54.382Z,15.18
2022-10-08T05:06:23.691Z,15.33
2022-10-08T05:08:50.952Z,15.65
2022-10-08T05:11:18.928Z,14.74
2022-10-08T05:13:55.845Z,15.19
2022-10-08T05:16:23.295Z,15.43
2022-10-08T05:18:52.128Z,16.70
2022-10-08T05:21:24.577Z,17.18
2022-10-08T05:24:11.331Z,16.96
2022-10-08T05:26:58.156Z,16.95
2022-10-08T05:29:26.063Z,16.86
2022-10-08T05:31:52.976Z,16.70
2022-10-08T05:34:19.928Z,16.41
2022-10-08T05:36:46.806Z,15.68
2022-10-08T05:39:13.995Z,16.18
2022-10-08T05:41:41.341Z,15.49
2022-10-08T05:44:09.775Z,14.46
2022-10-08T05:46:37.635Z,13.84
2022-10-08T05:49:07.212Z,14.65
2022-10-08T05:51:34.193Z,14.69
2022-10-08T05:54:01.394Z,14.87
2022-10-08T05:56:29.094Z,15.13
2022-10-08T05:58:56.107Z,15.19
2022-10-08T06:01:24.832Z,14.57
2022-10-08T06:03:56.131Z,14.01
2022-10-08T06:06:23.651Z,13.21
2022-10-08T06:08:58.766Z,13.82
2022-10-08T06:11:30.198Z,13.28
2022-10-08T06:13:58.837Z,13.19
2022-10-08T06:16:26.693Z,13.19
2022-10-08T06:18:54.097Z,13.23
2022-10-08T06:21:23.127Z,12.86
2022-10-08T06:23:57.879Z,13.81
2022-10-08T06:26:31.628Z,14.18
2022-10-08T06:29:01.482Z,15.36
2022-10-08T06:31:28.608Z,15.35
2022-10-08T06:33:58.776Z,14.87
2022-10-08T06:36:27.324Z,14.82
2022-10-08T06:38:56.544Z,15.64
2022-10-08T06:41:24.223Z,13.69
2022-10-08T06:43:51.275Z,13.65
2022-10-08T06:46:19.398Z,14.24
2022-10-08T06:48:46.752Z,14.04
2022-10-08T06:51:16.105Z,13.63
2022-10-08T06:53:43.554Z,13.86
2022-10-08T06:56:14.689Z,12.85
2022-10-08T06:58:44.018Z,12.89
2022-10-08T07:01:16.631Z,13.37
2022-10-08T07:03:43.687Z,13.08
2022-10-08T07:06:11.908Z,12.10
2022-10-08T07:08:39.390Z,12.74
2022-10-08T07:11:17.306Z,12.68
2022-10-08T07:13:45.046Z,13.22
2022-10-08T07:16:20.969Z,12.64
2022-10-08T07:18:49.933Z,13.40
2022-10-08T07:21:18.230Z,13.93
2022-10-08T07:23:45.562Z,12.98
2022-10-08T07:26:14.988Z,13.10
2022-10-08T07:28:48.040Z,13.67
2022-10-08T07:31:19.711Z,14.20
2022-10-08T07:33:46.637Z,14.84
2022-10-08T07:36:16.019Z,15.16
2022-10-08T07:38:43.205Z,15.24
2022-10-08T07:41:11.186Z,15.79
2022-10-08T07:43:41.410Z,15.56
2022-10-08T07:46:10.171Z,15.24
2022-10-08T07:48:37.672Z,15.11
2022-10-08T07:51:12.424Z,15.83
2022-10-08T07:53:40.143Z,16.27
2022-10-08T07:56:08.325Z,15.54
2022-10-08T07:58:35.775Z,16.36
2022-10-08T08:01:04.320Z,16.00
2022-10-08T08:03:31.307Z,15.49
2022-10-08T08:06:03.353Z,15.34
2022-10-08T08:08:30.480Z,15.51
2022-10-08T08:11:00.806Z,16.22
2022-10-08T08:13:31.879Z,16.46
2022-10-08T08:16:06.874Z,15.50
2022-10-08T08:18:35.742Z,15.62
2022-10-08T08:21:05.123Z,14.97
2022-10-08T08:23:53.067Z,15.10
2022-10-08T08:26:21.333Z,16.67
2022-10-08T08:28:56.226Z,16.02
2022-10-08T08:31:25.745Z,16.19
2022-10-08T08:33:58.154Z,15.61
2022-10-08T08:36:27.886Z,16.28
2022-10-08T08:38:55.391Z,17.21
2022-10-08T08:41:40.985Z,17.69
2022-10-08T08:44:17.429Z,18.73
2022-10-08T08:46:48.419Z,17.79
2022-10-08T08:49:42.595Z,19.26
2022-10-08T08:52:11.196Z,17.90
2022-10-08T08:54:38.180Z,18.89
2022-10-08T08:57:26.761Z,19.32
2022-10-08T08:59:55.680Z,19.15
2022-10-08T09:02:33.426Z,20.37
2022-10-08T09:05:04.104Z,20.00
2022-10-08T09:07:39.462Z,19.41
2022-10-08T09:10:10.509Z,20.35
2022-10-08T09:12:39.788Z,19.94
2022-10-08T09:15:26.887Z,21.11
2022-10-08T09:17:53.867Z,21.37
2022-10-08T09:20:23.513Z,22.21
2022-10-08T09:22:51.428Z,22.40
2022-10-08T09:25:21.696Z,21.41
2022-10-08T09:27:51.587Z,22.43
2022-10-08T09:30:24.733Z,23.38
2022-10-08T09:32:53.866Z,22.75
2022-10-08T09:35:21.081Z,22.63
2022-10-08T09:37:48.988Z,22.02
2022-10-08T09:40:27.605Z,23.28
2022-10-08T09:43:15.835Z,22.67
2022-10-08T09:45:47.835Z,22.44
2022-10-08T09:48:21.450Z,22.46
2022-10-08T09:51:05.442Z,23.34
2022-10-08T09:53:39.780Z,22.70
2022-10-08T09:56:08.055Z,23.83
2022-10-08T09:58:48.432Z,23.39
2022-10-08T10:01:16.841Z,23.02
2022-10-08T10:03:57.078Z,23.67
2022-10-08T10:06:29.594Z,22.92
2022-10-08T10:09:17.069Z,23.75
2022-10-08T10:11:49.966Z,23.84
2022-10-08T10:14:35.203Z,24.07
2022-10-08T10:17:25.701Z,24.39
2022-10-08T10:19:59.384Z,23.47
2022-10-08T10:22:44.992Z,24.91
2022-10-08T10:25:12.019Z,25.71
2022-10-08T10:27:42.689Z,24.99
2022-10-08T10:30:22.824Z,25.75
2022-10-08T10:33:04.796Z,25.47
2022-10-08T10:35:32.859Z,24.74
2022-10-08T10:38:16.511Z,24.94
2022-10-08T10:40:46.197Z,25.78
2022-10-08T10:43:25.607Z,25.75
2022-10-08T10:46:17.069Z,24.62
2022-10-08T10:48:43.961Z,23.91
2022-10-08T10:51:37.651Z,23.10
2022-10-08T10:54:22.967Z,24.36
2022-10-08T10:56:55.105Z,25.67
2022-10-08T10:59:34.911Z,24.68
2022-10-08T11:02:15.666Z,24.69
2022-10-08T11:05:02.084Z,25.65
2022-10-08T11:07:59.409Z,23.94
2022-10-08T11:10:38.614Z,23.60
2022-10-08T11:13:36.174Z,24.49
2022-10-08T11:16:21.000Z,24.69
2022-10-08T11:18:56.070Z,24.86
2022-10-08T11:21:54.156Z,25.12
2022-10-08T11:24:30.409Z,24.32
2022-10-08T11:27:21.507Z,24.35
2022-10-08T11:30:12.318Z,25.38
2022-10-08T11:32:41.238Z,25.31
2022-10-08T11:35:28.566Z,23.65
2022-10-08T11:37:58.748Z,23.69
2022-10-08T11:40:36.877Z,23.79
2022-10-08T11:43:28.232Z,24.45
2022-10-08T11:46:31.822Z,23.76
2022-10-08T11:49:11.632Z,24.51
2022-10-08T11:51:42.370Z,24.56
2022-10-08T11:54:38.709Z,24.24
2022-10-08T11:57:16.928Z,22.84
2022-10-08T11:59:48.436Z,22.96
2022-10-08T12:02:23.745Z,24.10
2022-10-08T12:04:52.545Z,23.15
2022-10-08T12:07:26.708Z,22.99
2022-10-08T12:10:05.875Z,23.78
2022-10-08T12:12:51.624Z,24.58
2022-10-08T12:15:24.625Z,23.80
2022-10-08T12:17:55.950Z,22.54
2022-10-08T12:20:25.529Z,23.56
2022-10-08T12:23:21.552Z,23.95
2022-10-08T12:25:49.553Z,24.90
2022-10-08T12:28:19.348Z,25.13
2022-10-08T12:30:48.281Z,25.81
2022-10-08T12:33:16.301Z,25.41
2022-10-08T12:36:11.186Z,24.01
2022-10-08T12:38:56.197Z,24.79
2022-10-08T12:41:30.417Z,25.01
2022-10-08T12:44:03.238Z,24.90
2022-10-08T12:46:35.894Z,24.65
2022-10-08T12:49:35.730Z,24.35
2022-10-08T12:52:17.232Z,25.11
2022-10-08T12:54:50.774Z,23.63
2022-10-08T12:57:40.925Z,24.30
2022-10-08T13:00:18.697Z,24.74
2022-10-08T13:03:20.325Z,25.18
2022-10-08T13:05:50.384Z,25.39
2022-10-08T13:08:30.626Z,26.28
2022-10-08T13:10:58.966Z,25.36
2022-10-08T13:13:41.347Z,25.36
2022-10-08T13:16:17.119Z,25.56
2022-10-08T13:18:47.133Z,25.74
2022-10-08T13:21:32.090Z,25.95
2022-10-08T13:24:11.547Z,26.63
2022-10-08T13:26:41.395Z,26.26
2022-10-08T13:29:21.456Z,25.70
2022-10-08T13:32:13.698Z,25.40
2022-10-08T13:34:40.632Z,25.81
2022-10-08T13:37:22.990Z,25.72
2022-10-08T13:39:57.937Z,26.39
2022-10-08T13:42:35.544Z,25.40
2022-10-08T13:45:04.631Z,22.73
2022-10-08T13:47:31.469Z,24.00
2022-10-08T13:50:02.320Z,24.15
2022-10-08T13:52:30.372Z,24.46
2022-10-08T13:55:00.404Z,24.78
2022-10-08T13:57:27.339Z,24.79
2022-10-08T13:59:54.172Z,24.83
2022-10-08T14:02:21.175Z,25.05
2022-10-08T14:04:48.065Z,24.52
2022-10-08T14:07:21.065Z,24.28
2022-10-08T14:09:48.094Z,24.35
2022-10-08T14:12:15.084Z,25.12
2022-10-08T14:14:41.926Z,25.29
2022-10-08T14:17:08.760Z,25.06
2022-10-08T14:19:35.601Z,24.65
2022-10-08T14:22:02.489Z,25.21
2022-10-08T14:24:29.379Z,25.67
2022-10-08T14:26:56.176Z,25.44
2022-10-08T14:29:23.023Z,24.38
2022-10-08T14:31:49.971Z,25.20
2022-10-08T14:34:16.890Z,24.83
2022-10-08T14:36:43.809Z,25.45
2022-10-08T14:39:10.677Z,25.27
2022-10-08T14:41:38.280Z,25.64
2022-10-08T14:44:05.195Z,24.89
2022-10-08T14:46:32.110Z,25.44
2022-10-08T14:48:59.063Z,25.44
2022-10-08T14:51:25.905Z,25.22
2022-10-08T14:53:53.065Z,24.89
2022-10-08T14:56:19.997Z,24.32
2022-10-08T14:58:46.830Z,24.15
2022-10-08T15:01:13.663Z,23.72
2022-10-08T15:03:40.565Z,24.59
2022-10-08T15:06:07.659Z,24.78
2022-10-08T15:08:34.502Z,24.59
2022-10-08T15:11:03.506Z,25.37
2022-10-08T15:13:30.597Z,25.01
2022-10-08T15:15:57.545Z,25.17
2022-10-08T15:18:24.721Z,24.59
2022-10-08T15:21:00.130Z,24.60
2022-10-08T15:23:27.384Z,23.74
2022-10-08T15:25:59.588Z,24.30
2022-10-08T15:28:28.051Z,24.62
2022-10-08T15:31:06.177Z,24.75
2022-10-08T15:33:46.897Z,24.19
2022-10-08T15:36:18.973Z,24.07
2022-10-08T15:38:46.920Z,23.35
2022-10-08T15:41:15.280Z,24.15
2022-10-08T15:43:42.191Z,22.94
2022-10-08T15:46:15.045Z,23.18
2022-10-08T15:48:41.987Z,22.88
2022-10-08T15:51:09.235Z,23.58
2022-10-08T15:53:37.659Z,22.97
2022-10-08T15:56:05.698Z,23.14
2022-10-08T15:58:49.833Z,23.37
2022-10-08T16:01:19.419Z,24.11
2022-10-08T16:03:48.210Z,23.49
2022-10-08T16:06:23.653Z,24.13
2022-10-08T16:08:50.565Z,24.19
2022-10-08T16:11:37.012Z,24.39
2022-10-08T16:14:08.675Z,23.91
2022-10-08T16:16:36.534Z,23.88
2022-10-08T16:19:05.821Z,24.63
2022-10-08T16:21:34.232Z,24.04
2022-10-08T16:24:01.814Z,24.59
2022-10-08T16:26:31.881Z,25.04
2022-10-08T16:29:00.756Z,24.65
2022-10-08T16:31:30.488Z,24.32
2022-10-08T16:34:03.810Z,23.84
2022-10-08T16:36:31.640Z,23.70
2022-10-08T16:38:58.689Z,24.05
2022-10-08T16:41:28.659Z,24.72
2022-10-08T16:43:57.649Z,24.13
2022-10-08T16:46:27.530Z,24.19
2022-10-08T16:49:22.703Z,23.32
2022-10-08T16:51:52.807Z,23.77
2022-10-08T16:54:19.795Z,24.22
2022-10-08T16:56:47.061Z,23.96
2022-10-08T16:59:21.540Z,24.31
2022-10-08T17:01:50.883Z,24.27
2022-10-08T17:04:18.910Z,23.70
2022-10-08T17:06:46.576Z,23.53
2022-10-08T17:09:13.470Z,23.12
2022-10-08T17:11:41.424Z,22.87
2022-10-08T17:14:10.277Z,23.00
2022-10-08T17:16:37.978Z,23.04
2022-10-08T17:19:05.047Z,22.76
2022-10-08T17:21:35.037Z,22.59
2022-10-08T17:24:02.835Z,22.03
2022-10-08T17:26:30.712Z,21.98
2022-10-08T17:28:58.130Z,22.02
2022-10-08T17:31:27.068Z,21.42
2022-10-08T17:33:54.452Z,21.26
2022-10-08T17:36:26.721Z,20.80
2022-10-08T17:38:55.764Z,21.00
2022-10-08T17:41:36.428Z,21.47
2022-10-08T17:44:05.394Z,20.82
2022-10-08T17:46:35.140Z,20.86
2022-10-08T17:49:02.298Z,20.78
2022-10-08T17:51:30.153Z,21.20
2022-10-08T17:54:02.231Z,21.87
2022-10-08T17:56:29.428Z,21.74
2022-10-08T17:58:56.807Z,21.92
2022-10-08T18:01:39.184Z,21.96
2022-10-08T18:04:10.228Z,21.76
2022-10-08T18:06:40.963Z,21.96
2022-10-08T18:09:11.032Z,21.59
2022-10-08T18:11:41.662Z,21.35
2022-10-08T18:14:08.623Z,21.79
2022-10-08T18:16:35.976Z,21.63
2022-10-08T18:19:08.393Z,21.01
2022-10-08T18:21:36.079Z,20.70
2022-10-08T18:24:03.096Z,20.27
2022-10-08T18:26:35.020Z,19.95
2022-10-08T18:29:04.319Z,20.27
2022-10-08T18:31:33.305Z,20.29
2022-10-08T18:34:02.741Z,20.22
2022-10-08T18:36:31.505Z,19.88
2022-10-08T18:38:58.314Z,20.54
2022-10-08T18:41:28.287Z,19.58
2022-10-08T18:43:55.752Z,20.32
2022-10-08T18:46:23.246Z,20.10
2022-10-08T18:48:50.153Z,19.30
2022-10-08T18:51:22.615Z,20.12
2022-10-08T18:53:50.105Z,20.30
2022-10-08T18:56:22.326Z,19.82
2022-10-08T18:58:52.812Z,19.83
2022-10-08T19:01:22.110Z,20.30
2022-10-08T19:03:50.736Z,19.58
2022-10-08T19:06:19.330Z,19.48
2022-10-08T19:08:47.121Z,19.77
2022-10-08T19:11:16.724Z,20.70
2022-10-08T19:13:44.719Z,20.65
2022-10-08T19:16:15.725Z,20.60
2022-10-08T19:18:44.327Z,19.81
2022-10-08T19:21:12.807Z,19.41
2022-10-08T19:23:40.227Z,19.29
2022-10-08T19:26:07.263Z,19.17
2022-10-08T19:28:37.101Z,19.50
2022-10-08T19:31:24.768Z,19.71
2022-10-08T19:33:54.145Z,20.50
2022-10-08T19:36:21.968Z,19.79
2022-10-08T19:38:57.035Z,19.86
2022-10-08T19:41:24.494Z,20.27
2022-10-08T19:43:52.187Z,20.61
2022-10-08T19:46:19.827Z,20.80
2022-10-08T19:48:50.910Z,20.12
2022-10-08T19:51:18.652Z,19.36
2022-10-08T19:53:45.783Z,19.17
2022-10-08T19:56:13.404Z,19.41
2022-10-08T19:58:46.215Z,19.03
2022-10-08T20:01:17.745Z,19.67
2022-10-08T20:03:44.767Z,19.67
2022-10-08T20:06:21.684Z,19.78
2022-10-08T20:08:52.242Z,19.38
2022-10-08T20:11:19.657Z,19.13
2022-10-08T20:13:47.733Z,19.21
2022-10-08T20:16:23.269Z,19.09
2022-10-08T20:18:59.555Z,20.00
2022-10-08T20:21:28.147Z,19.84
2022-10-08T20:23:55.385Z,19.42
2022-10-08T20:26:29.695Z,18.69
2022-10-08T20:29:07.472Z,19.65
2022-10-08T20:31:37.261Z,19.68
2022-10-08T20:34:07.324Z,19.56
2022-10-08T20:36:34.808Z,20.07
2022-10-08T20:39:01.692Z,20.33
2022-10-08T20:41:31.201Z,20.30
2022-10-08T20:44:03.200Z,20.58
2022-10-08T20:46:31.040Z,20.63
2022-10-08T20:48:58.002Z,20.91
2022-10-08T20:51:26.269Z,20.56
2022-10-08T20:54:00.905Z,19.90
2022-10-08T20:56:29.643Z,19.86
2022-10-08T20:58:57.014Z,19.68
2022-10-08T21:01:26.469Z,19.74
2022-10-08T21:03:54.702Z,19.88
2022-10-08T21:06:27.788Z,20.49
2022-10-08T21:08:56.044Z,20.46
2022-10-08T21:11:25.022Z,19.94
2022-10-08T21:13:52.309Z,20.17
2022-10-08T21:16:27.610Z,20.53
2022-10-08T21:18:56.690Z,20.08
2022-10-08T21:21:23.997Z,19.70
2022-10-08T21:23:51.109Z,19.41
2022-10-08T21:26:24.719Z,19.69
2022-10-08T21:28:53.688Z,19.96
2022-10-08T21:31:21.364Z,20.78
2022-10-08T21:33:50.238Z,20.24
2022-10-08T21:36:28.992Z,20.25
2022-10-08T21:38:56.156Z,20.10
2022-10-08T21:41:24.305Z,20.04
2022-10-08T21:43:54.900Z,20.12
2022-10-08T21:46:25.002Z,19.88
2022-10-08T21:48:59.626Z,20.48
2022-10-08T21:51:27.780Z,20.67
2022-10-08T21:53:56.796Z,20.16
2022-10-08T21:56:29.481Z,19.88
2022-10-08T21:58:59.224Z,19.58
2022-10-08T22:01:28.759Z,19.88
2022-10-08T22:03:57.391Z,19.71
2022-10-08T22:06:24.631Z,19.75
2022-10-08T22:08:51.698Z,20.72
2022-10-08T22:11:19.111Z,20.95
2022-10-08T22:13:46.560Z,20.79
2022-10-08T22:16:14.927Z,20.18
2022-10-08T22:18:41.965Z,20.41
2022-10-08T22:21:13.231Z,20.27
2022-10-08T22:23:40.180Z,19.85
2022-10-08T22:26:14.067Z,19.91
2022-10-08T22:28:41.164Z,20.03
2022-10-08T22:31:09.594Z,19.83
2022-10-08T22:33:37.052Z,19.56
2022-10-08T22:36:04.863Z,19.79
2022-10-08T22:38:36.801Z,19.72
2022-10-08T22:41:09.208Z,19.26
2022-10-08T22:43:37.125Z,20.44
2022-10-08T22:46:08.290Z,20.55
2022-10-08T22:48:35.503Z,20.58
2022-10-08T22:51:08.421Z,19.19
2022-10-08T22:53:35.617Z,20.23
2022-10-08T22:56:12.887Z,20.54
2022-10-08T22:58:39.885Z,20.03
2022-10-08T23:01:09.604Z,19.91
2022-10-08T23:03:36.813Z,20.04
2022-10-08T23:06:24.319Z,19.86
2022-10-08T23:08:59.589Z,20.07
2022-10-08T23:11:26.901Z,19.63
2022-10-08T23:13:55.841Z,19.75
2022-10-08T23:16:23.706Z,19.69
2022-10-08T23:18:56.239Z,19.84
2022-10-08T23:21:23.828Z,19.89
2022-10-08T23:23:51.238Z,19.93
2022-10-08T23:26:18.508Z,20.20
2022-10-08T23:28:49.323Z,20.26
2022-10-08T23:31:18.285Z,20.22
2022-10-08T23:33:48.118Z,19.22
2022-10-08T23:36:19.834Z,20.01
2022-10-08T23:38:46.774Z,19.58
2022-10-08T23:41:14.080Z,19.21
2022-10-08T23:43:45.784Z,19.94
2022-10-08T23:46:14.636Z,20.22
2022-10-08T23:48:42.159Z,20.31
2022-10-08T23:51:10.141Z,20.87
2022-10-08T23:53:37.299Z,20.10
2022-10-08T23:56:04.786Z,19.16
2022-10-08T23:58:31.886Z,17.93
